Terminal Aerodrome Forecast
Issued by NWS

Current Version | Previous Version | Text Only | Print | Product List | Glossary On
Versions: 1 2 3 4 5 6 7 8 9 10 11 12 13 14 15 16 17 18 19 20 21 22 23 24 25 26 27 28 29 30 31 32 33 34 35 36 37 38 39 40 41 42 43 44 45 46 47 48 49 50
000
FTUS45 KGJT 201807 AAA
TAFASE
TAF AMD
KASE 201807Z 2018/2118 36004KT P6SM VCSH BKN040 BKN060
     FM202300 01003KT P6SM VCSH SCT020 OVC050
     FM210600 20005KT 4SM -SN BR SCT010 OVC030
     FM211200 20005KT P6SM VCSH SCT020 OVC040
     FM211700 21003KT 3SM -SN BR BKN020=

USA.gov is the U.S. government's official web portal to all federal, state and local government web resources and services.